sensor_id;sensor_type;location;lat;lon;timestamp;P1;durP1;ratioP1;P2;durP2;ratioP2
10719;SDS011;5411;58.386;15.560;2023-04-25T00:02:17;2.83;;;2.43;;
10719;SDS011;5411;58.386;15.560;2023-04-25T00:04:46;2.50;;;2.30;;
10719;SDS011;5411;58.386;15.560;2023-04-25T00:07:24;3.10;;;2.77;;
10719;SDS011;5411;58.386;15.560;2023-04-25T00:09:53;3.23;;;2.10;;
10719;SDS011;5411;58.386;15.560;2023-04-25T00:12:21;2.43;;;2.23;;
10719;SDS011;5411;58.386;15.560;2023-04-25T00:14:50;2.33;;;2.13;;
10719;SDS011;5411;58.386;15.560;2023-04-25T00:17:19;2.20;;;2.10;;
10719;SDS011;5411;58.386;15.560;2023-04-25T00:19:48;2.40;;;2.10;;
10719;SDS011;5411;58.386;15.560;2023-04-25T00:22:16;2.20;;;2.00;;
10719;SDS011;5411;58.386;15.560;2023-04-25T00:24:46;1.97;;;1.67;;
10719;SDS011;5411;58.386;15.560;2023-04-25T00:27:14;1.80;;;1.70;;
10719;SDS011;5411;58.386;15.560;2023-04-25T00:29:44;1.77;;;1.67;;
10719;SDS011;5411;58.386;15.560;2023-04-25T00:32:13;1.50;;;1.40;;
10719;SDS011;5411;58.386;15.560;2023-04-25T00:34:41;1.57;;;1.40;;
10719;SDS011;5411;58.386;15.560;2023-04-25T00:37:10;1.83;;;1.73;;
10719;SDS011;5411;58.386;15.560;2023-04-25T00:39:40;1.20;;;1.10;;
10719;SDS011;5411;58.386;15.560;2023-04-25T00:42:10;1.77;;;1.67;;
10719;SDS011;5411;58.386;15.560;2023-04-25T00:44:39;1.60;;;1.40;;
10719;SDS011;5411;58.386;15.560;2023-04-25T00:47:08;1.50;;;1.40;;
10719;SDS011;5411;58.386;15.560;2023-04-25T00:49:38;1.63;;;1.53;;
10719;SDS011;5411;58.386;15.560;2023-04-25T00:52:07;1.70;;;1.60;;
10719;SDS011;5411;58.386;15.560;2023-04-25T00:54:35;2.23;;;1.60;;
10719;SDS011;5411;58.386;15.560;2023-04-25T00:57:04;1.60;;;1.50;;
10719;SDS011;5411;58.386;15.560;2023-04-25T00:59:33;2.10;;;1.90;;
10719;SDS011;5411;58.386;15.560;2023-04-25T01:02:03;1.63;;;1.53;;
10719;SDS011;5411;58.386;15.560;2023-04-25T01:04:32;1.73;;;1.63;;
10719;SDS011;5411;58.386;15.560;2023-04-25T01:07:03;1.90;;;1.73;;
10719;SDS011;5411;58.386;15.560;2023-04-25T01:09:32;1.70;;;1.60;;
10719;SDS011;5411;58.386;15.560;2023-04-25T01:12:19;1.50;;;1.40;;
10719;SDS011;5411;58.386;15.560;2023-04-25T01:14:52;2.50;;;2.40;;
10719;SDS011;5411;58.386;15.560;2023-04-25T01:17:21;1.60;;;1.50;;
10719;SDS011;5411;58.386;15.560;2023-04-25T01:19:50;2.17;;;1.97;;
10719;SDS011;5411;58.386;15.560;2023-04-25T01:22:20;1.77;;;1.67;;
10719;SDS011;5411;58.386;15.560;2023-04-25T01:24:48;2.00;;;1.90;;
10719;SDS011;5411;58.386;15.560;2023-04-25T01:27:17;1.90;;;1.60;;
10719;SDS011;5411;58.386;15.560;2023-04-25T01:29:47;2.30;;;1.90;;
10719;SDS011;5411;58.386;15.560;2023-04-25T01:32:15;2.50;;;2.30;;
10719;SDS011;5411;58.386;15.560;2023-04-25T01:34:44;2.00;;;1.90;;
10719;SDS011;5411;58.386;15.560;2023-04-25T01:37:13;1.73;;;1.63;;
10719;SDS011;5411;58.386;15.560;2023-04-25T01:39:43;2.40;;;1.87;;
10719;SDS011;5411;58.386;15.560;2023-04-25T01:42:13;2.00;;;1.90;;
10719;SDS011;5411;58.386;15.560;2023-04-25T01:44:43;1.97;;;1.83;;
10719;SDS011;5411;58.386;15.560;2023-04-25T01:47:11;2.20;;;2.00;;
10719;SDS011;5411;58.386;15.560;2023-04-25T01:49:40;2.43;;;2.23;;
10719;SDS011;5411;58.386;15.560;2023-04-25T01:52:08;2.30;;;2.10;;
10719;SDS011;5411;58.386;15.560;2023-04-25T01:54:36;2.43;;;2.30;;
10719;SDS011;5411;58.386;15.560;2023-04-25T01:57:12;2.37;;;2.17;;
10719;SDS011;5411;58.386;15.560;2023-04-25T01:59:42;2.57;;;2.33;;
10719;SDS011;5411;58.386;15.560;2023-04-25T02:02:11;2.43;;;2.23;;
10719;SDS011;5411;58.386;15.560;2023-04-25T02:04:40;2.90;;;2.60;;
10719;SDS011;5411;58.386;15.560;2023-04-25T02:07:10;2.80;;;2.60;;
10719;SDS011;5411;58.386;15.560;2023-04-25T02:09:38;2.53;;;2.33;;
10719;SDS011;5411;58.386;15.560;2023-04-25T02:12:07;2.97;;;2.33;;
10719;SDS011;5411;58.386;15.560;2023-04-25T02:14:37;2.60;;;2.30;;
10719;SDS011;5411;58.386;15.560;2023-04-25T02:17:06;2.67;;;2.30;;
10719;SDS011;5411;58.386;15.560;2023-04-25T02:19:35;1.80;;;1.70;;
10719;SDS011;5411;58.386;15.560;2023-04-25T02:22:03;2.30;;;2.10;;
10719;SDS011;5411;58.386;15.560;2023-04-25T02:24:31;2.23;;;2.03;;
10719;SDS011;5411;58.386;15.560;2023-04-25T02:27:01;2.20;;;2.00;;
10719;SDS011;5411;58.386;15.560;2023-04-25T02:29:31;2.00;;;1.83;;
10719;SDS011;5411;58.386;15.560;2023-04-25T02:32:02;2.90;;;1.87;;
10719;SDS011;5411;58.386;15.560;2023-04-25T02:34:30;3.33;;;2.00;;
10719;SDS011;5411;58.386;15.560;2023-04-25T02:36:59;2.00;;;1.80;;
10719;SDS011;5411;58.386;15.560;2023-04-25T02:39:29;2.17;;;1.87;;
10719;SDS011;5411;58.386;15.560;2023-04-25T02:41:57;1.70;;;1.60;;
10719;SDS011;5411;58.386;15.560;2023-04-25T02:44:25;2.23;;;1.53;;
10719;SDS011;5411;58.386;15.560;2023-04-25T02:46:53;1.93;;;1.33;;
10719;SDS011;5411;58.386;15.560;2023-04-25T02:49:23;2.50;;;1.60;;
10719;SDS011;5411;58.386;15.560;2023-04-25T02:51:52;2.17;;;1.97;;
10719;SDS011;5411;58.386;15.560;2023-04-25T02:54:20;1.70;;;1.60;;
10719;SDS011;5411;58.386;15.560;2023-04-25T02:56:48;2.13;;;2.00;;
10719;SDS011;5411;58.386;15.560;2023-04-25T02:59:17;2.07;;;1.87;;
10719;SDS011;5411;58.386;15.560;2023-04-25T03:01:45;2.30;;;1.80;;
10719;SDS011;5411;58.386;15.560;2023-04-25T03:04:14;1.77;;;1.67;;
10719;SDS011;5411;58.386;15.560;2023-04-25T03:06:43;2.17;;;2.07;;
10719;SDS011;5411;58.386;15.560;2023-04-25T03:09:11;3.17;;;1.93;;
10719;SDS011;5411;58.386;15.560;2023-04-25T03:11:40;2.43;;;2.10;;
10719;SDS011;5411;58.386;15.560;2023-04-25T03:14:08;2.40;;;1.97;;
10719;SDS011;5411;58.386;15.560;2023-04-25T03:16:39;1.77;;;1.67;;
10719;SDS011;5411;58.386;15.560;2023-04-25T03:19:08;2.07;;;1.90;;
10719;SDS011;5411;58.386;15.560;2023-04-25T03:21:38;1.87;;;1.77;;
10719;SDS011;5411;58.386;15.560;2023-04-25T03:24:08;1.70;;;1.60;;
10719;SDS011;5411;58.386;15.560;2023-04-25T03:26:38;1.57;;;1.47;;
10719;SDS011;5411;58.386;15.560;2023-04-25T03:29:06;1.90;;;1.80;;
10719;SDS011;5411;58.386;15.560;2023-04-25T03:31:38;1.67;;;1.57;;
10719;SDS011;5411;58.386;15.560;2023-04-25T03:34:06;2.77;;;1.57;;
10719;SDS011;5411;58.386;15.560;2023-04-25T03:36:35;1.93;;;1.80;;
10719;SDS011;5411;58.386;15.560;2023-04-25T03:39:09;1.90;;;1.63;;
10719;SDS011;5411;58.386;15.560;2023-04-25T03:41:37;1.90;;;1.50;;
10719;SDS011;5411;58.386;15.560;2023-04-25T03:44:06;1.63;;;1.53;;
10719;SDS011;5411;58.386;15.560;2023-04-25T03:46:34;1.93;;;1.80;;
10719;SDS011;5411;58.386;15.560;2023-04-25T03:49:02;2.07;;;1.50;;
10719;SDS011;5411;58.386;15.560;2023-04-25T03:51:31;2.00;;;1.80;;
10719;SDS011;5411;58.386;15.560;2023-04-25T03:53:59;2.23;;;2.10;;
10719;SDS011;5411;58.386;15.560;2023-04-25T03:56:29;3.60;;;1.90;;
10719;SDS011;5411;58.386;15.560;2023-04-25T03:58:57;1.80;;;1.70;;
10719;SDS011;5411;58.386;15.560;2023-04-25T04:01:26;2.30;;;2.13;;
10719;SDS011;5411;58.386;15.560;2023-04-25T04:03:55;2.10;;;1.90;;
10719;SDS011;5411;58.386;15.560;2023-04-25T04:06:24;1.90;;;1.80;;
10719;SDS011;5411;58.386;15.560;2023-04-25T04:08:53;1.90;;;1.70;;
10719;SDS011;5411;58.386;15.560;2023-04-25T04:11:21;2.23;;;2.03;;
10719;SDS011;5411;58.386;15.560;2023-04-25T04:13:51;2.07;;;1.97;;
10719;SDS011;5411;58.386;15.560;2023-04-25T04:16:20;2.97;;;2.27;;
10719;SDS011;5411;58.386;15.560;2023-04-25T04:18:51;2.90;;;2.10;;
10719;SDS011;5411;58.386;15.560;2023-04-25T04:21:20;1.93;;;1.83;;
10719;SDS011;5411;58.386;15.560;2023-04-25T04:23:48;6.30;;;2.53;;
10719;SDS011;5411;58.386;15.560;2023-04-25T04:26:18;2.20;;;2.00;;
10719;SDS011;5411;58.386;15.560;2023-04-25T04:28:49;2.97;;;2.30;;
10719;SDS011;5411;58.386;15.560;2023-04-25T04:31:19;4.17;;;2.30;;
10719;SDS011;5411;58.386;15.560;2023-04-25T04:33:48;3.33;;;2.10;;
10719;SDS011;5411;58.386;15.560;2023-04-25T04:36:17;2.07;;;1.87;;
10719;SDS011;5411;58.386;15.560;2023-04-25T04:38:48;2.27;;;2.07;;
10719;SDS011;5411;58.386;15.560;2023-04-25T04:41:19;2.00;;;1.90;;
10719;SDS011;5411;58.386;15.560;2023-04-25T04:43:47;3.27;;;2.20;;
10719;SDS011;5411;58.386;15.560;2023-04-25T04:46:19;3.70;;;2.20;;
10719;SDS011;5411;58.386;15.560;2023-04-25T04:48:48;2.40;;;2.20;;
10719;SDS011;5411;58.386;15.560;2023-04-25T04:51:16;2.47;;;2.20;;
10719;SDS011;5411;58.386;15.560;2023-04-25T04:53:45;3.93;;;2.30;;
10719;SDS011;5411;58.386;15.560;2023-04-25T04:56:16;2.97;;;2.30;;
10719;SDS011;5411;58.386;15.560;2023-04-25T04:58:47;4.87;;;2.10;;
10719;SDS011;5411;58.386;15.560;2023-04-25T05:01:17;2.20;;;2.00;;
10719;SDS011;5411;58.386;15.560;2023-04-25T05:03:47;3.60;;;2.50;;
10719;SDS011;5411;58.386;15.560;2023-04-25T05:06:16;3.73;;;2.23;;
10719;SDS011;5411;58.386;15.560;2023-04-25T05:08:46;4.00;;;2.40;;
10719;SDS011;5411;58.386;15.560;2023-04-25T05:11:14;2.93;;;2.60;;
10719;SDS011;5411;58.386;15.560;2023-04-25T05:13:42;2.43;;;2.23;;
10719;SDS011;5411;58.386;15.560;2023-04-25T05:16:12;2.37;;;2.17;;
10719;SDS011;5411;58.386;15.560;2023-04-25T05:18:46;7.20;;;2.57;;
10719;SDS011;5411;58.386;15.560;2023-04-25T05:21:15;2.37;;;2.17;;
10719;SDS011;5411;58.386;15.560;2023-04-25T05:23:44;2.00;;;1.90;;
10719;SDS011;5411;58.386;15.560;2023-04-25T05:26:12;4.37;;;2.13;;
10719;SDS011;5411;58.386;15.560;2023-04-25T05:28:41;2.40;;;2.20;;
10719;SDS011;5411;58.386;15.560;2023-04-25T05:31:09;1.97;;;1.87;;
10719;SDS011;5411;58.386;15.560;2023-04-25T05:33:38;5.13;;;2.10;;
10719;SDS011;5411;58.386;15.560;2023-04-25T05:36:09;2.70;;;2.50;;
10719;SDS011;5411;58.386;15.560;2023-04-25T05:38:37;4.40;;;2.30;;
10719;SDS011;5411;58.386;15.560;2023-04-25T05:41:06;2.20;;;2.00;;
10719;SDS011;5411;58.386;15.560;2023-04-25T05:43:34;2.73;;;2.43;;
10719;SDS011;5411;58.386;15.560;2023-04-25T05:46:03;4.03;;;2.37;;
10719;SDS011;5411;58.386;15.560;2023-04-25T05:48:34;5.23;;;2.40;;
10719;SDS011;5411;58.386;15.560;2023-04-25T05:51:02;2.80;;;2.60;;
10719;SDS011;5411;58.386;15.560;2023-04-25T05:53:32;2.37;;;2.17;;
10719;SDS011;5411;58.386;15.560;2023-04-25T05:56:00;2.57;;;2.33;;
10719;SDS011;5411;58.386;15.560;2023-04-25T05:58:29;3.53;;;2.30;;
10719;SDS011;5411;58.386;15.560;2023-04-25T06:00:57;4.10;;;2.37;;
10719;SDS011;5411;58.386;15.560;2023-04-25T06:03:25;5.33;;;2.70;;
10719;SDS011;5411;58.386;15.560;2023-04-25T06:05:54;2.50;;;2.30;;
10719;SDS011;5411;58.386;15.560;2023-04-25T06:08:23;4.17;;;2.40;;
10719;SDS011;5411;58.386;15.560;2023-04-25T06:10:53;3.47;;;2.80;;
10719;SDS011;5411;58.386;15.560;2023-04-25T06:13:21;3.40;;;2.57;;
10719;SDS011;5411;58.386;15.560;2023-04-25T06:15:50;3.73;;;2.53;;
10719;SDS011;5411;58.386;15.560;2023-04-25T06:18:18;3.23;;;2.57;;
10719;SDS011;5411;58.386;15.560;2023-04-25T06:20:48;2.93;;;2.70;;
10719;SDS011;5411;58.386;15.560;2023-04-25T06:23:16;4.40;;;2.83;;
10719;SDS011;5411;58.386;15.560;2023-04-25T06:25:45;4.00;;;2.83;;
10719;SDS011;5411;58.386;15.560;2023-04-25T06:28:14;3.33;;;2.80;;
10719;SDS011;5411;58.386;15.560;2023-04-25T06:30:43;4.37;;;3.03;;
10719;SDS011;5411;58.386;15.560;2023-04-25T06:33:11;3.20;;;2.90;;
10719;SDS011;5411;58.386;15.560;2023-04-25T06:35:40;4.43;;;2.70;;
10719;SDS011;5411;58.386;15.560;2023-04-25T06:38:09;2.80;;;2.53;;
10719;SDS011;5411;58.386;15.560;2023-04-25T06:40:37;2.80;;;2.60;;
10719;SDS011;5411;58.386;15.560;2023-04-25T06:43:06;3.17;;;2.87;;
10719;SDS011;5411;58.386;15.560;2023-04-25T06:45:35;3.17;;;2.77;;
10719;SDS011;5411;58.386;15.560;2023-04-25T06:48:05;2.90;;;2.70;;
10719;SDS011;5411;58.386;15.560;2023-04-25T06:50:33;3.33;;;2.70;;
10719;SDS011;5411;58.386;15.560;2023-04-25T06:53:02;3.73;;;2.90;;
10719;SDS011;5411;58.386;15.560;2023-04-25T06:55:31;3.17;;;2.87;;
10719;SDS011;5411;58.386;15.560;2023-04-25T06:57:59;3.27;;;2.80;;
10719;SDS011;5411;58.386;15.560;2023-04-25T07:00:29;3.67;;;3.07;;
10719;SDS011;5411;58.386;15.560;2023-04-25T07:03:00;3.17;;;2.87;;
10719;SDS011;5411;58.386;15.560;2023-04-25T07:05:28;3.23;;;2.93;;
10719;SDS011;5411;58.386;15.560;2023-04-25T07:07:59;2.97;;;2.77;;
10719;SDS011;5411;58.386;15.560;2023-04-25T07:10:27;2.80;;;2.50;;
10719;SDS011;5411;58.386;15.560;2023-04-25T07:12:56;3.83;;;2.90;;
10719;SDS011;5411;58.386;15.560;2023-04-25T07:15:24;2.97;;;2.67;;
10719;SDS011;5411;58.386;15.560;2023-04-25T07:17:53;3.17;;;2.87;;
10719;SDS011;5411;58.386;15.560;2023-04-25T07:20:23;4.00;;;2.70;;
10719;SDS011;5411;58.386;15.560;2023-04-25T07:22:51;3.70;;;3.10;;
10719;SDS011;5411;58.386;15.560;2023-04-25T07:25:20;3.30;;;3.00;;
10719;SDS011;5411;58.386;15.560;2023-04-25T07:27:48;3.80;;;2.80;;
10719;SDS011;5411;58.386;15.560;2023-04-25T07:30:16;3.30;;;2.50;;
10719;SDS011;5411;58.386;15.560;2023-04-25T07:32:45;3.10;;;2.80;;
10719;SDS011;5411;58.386;15.560;2023-04-25T07:35:14;2.87;;;2.60;;
10719;SDS011;5411;58.386;15.560;2023-04-25T07:37:44;2.90;;;2.70;;
10719;SDS011;5411;58.386;15.560;2023-04-25T07:40:12;2.80;;;2.60;;
10719;SDS011;5411;58.386;15.560;2023-04-25T07:42:43;4.03;;;2.73;;
10719;SDS011;5411;58.386;15.560;2023-04-25T07:45:11;2.53;;;2.33;;
10719;SDS011;5411;58.386;15.560;2023-04-25T07:47:43;2.47;;;2.27;;
10719;SDS011;5411;58.386;15.560;2023-04-25T07:50:11;3.00;;;2.70;;
10719;SDS011;5411;58.386;15.560;2023-04-25T07:52:40;2.60;;;2.40;;
10719;SDS011;5411;58.386;15.560;2023-04-25T07:55:10;3.27;;;2.60;;
10719;SDS011;5411;58.386;15.560;2023-04-25T07:57:38;3.23;;;2.80;;
10719;SDS011;5411;58.386;15.560;2023-04-25T08:00:08;2.70;;;2.50;;
10719;SDS011;5411;58.386;15.560;2023-04-25T08:02:38;2.97;;;2.70;;
10719;SDS011;5411;58.386;15.560;2023-04-25T08:05:07;2.90;;;2.70;;
10719;SDS011;5411;58.386;15.560;2023-04-25T08:07:38;3.07;;;2.80;;
10719;SDS011;5411;58.386;15.560;2023-04-25T08:10:07;2.90;;;2.70;;
10719;SDS011;5411;58.386;15.560;2023-04-25T08:12:37;3.23;;;2.93;;
10719;SDS011;5411;58.386;15.560;2023-04-25T08:15:06;2.77;;;2.47;;
10719;SDS011;5411;58.386;15.560;2023-04-25T08:17:35;3.03;;;2.83;;
10719;SDS011;5411;58.386;15.560;2023-04-25T08:20:04;2.90;;;2.70;;
10719;SDS011;5411;58.386;15.560;2023-04-25T08:22:35;3.10;;;2.80;;
10719;SDS011;5411;58.386;15.560;2023-04-25T08:25:04;3.00;;;2.80;;
10719;SDS011;5411;58.386;15.560;2023-04-25T08:27:40;3.77;;;3.27;;
10719;SDS011;5411;58.386;15.560;2023-04-25T08:30:09;3.20;;;2.90;;
10719;SDS011;5411;58.386;15.560;2023-04-25T08:32:39;3.13;;;2.87;;
10719;SDS011;5411;58.386;15.560;2023-04-25T08:35:07;4.17;;;2.87;;
10719;SDS011;5411;58.386;15.560;2023-04-25T08:37:36;4.00;;;3.20;;
10719;SDS011;5411;58.386;15.560;2023-04-25T08:40:07;3.23;;;2.73;;
10719;SDS011;5411;58.386;15.560;2023-04-25T08:42:41;3.83;;;3.53;;
10719;SDS011;5411;58.386;15.560;2023-04-25T08:45:10;3.80;;;3.40;;
10719;SDS011;5411;58.386;15.560;2023-04-25T08:47:38;3.47;;;2.83;;
10719;SDS011;5411;58.386;15.560;2023-04-25T08:50:08;3.50;;;3.20;;
10719;SDS011;5411;58.386;15.560;2023-04-25T08:52:39;4.00;;;3.60;;
10719;SDS011;5411;58.386;15.560;2023-04-25T08:55:12;3.70;;;3.30;;
10719;SDS011;5411;58.386;15.560;2023-04-25T08:57:43;3.80;;;3.50;;
10719;SDS011;5411;58.386;15.560;2023-04-25T09:00:13;3.77;;;3.47;;
10719;SDS011;5411;58.386;15.560;2023-04-25T09:02:42;3.80;;;3.50;;
10719;SDS011;5411;58.386;15.560;2023-04-25T09:05:12;4.27;;;3.60;;
10719;SDS011;5411;58.386;15.560;2023-04-25T09:07:41;3.87;;;3.47;;
10719;SDS011;5411;58.386;15.560;2023-04-25T09:10:10;4.00;;;3.50;;
10719;SDS011;5411;58.386;15.560;2023-04-25T09:12:38;4.83;;;4.40;;
10719;SDS011;5411;58.386;15.560;2023-04-25T09:15:09;4.40;;;4.00;;
10719;SDS011;5411;58.386;15.560;2023-04-25T09:17:48;4.87;;;4.43;;
10719;SDS011;5411;58.386;15.560;2023-04-25T09:20:24;5.17;;;4.67;;
10719;SDS011;5411;58.386;15.560;2023-04-25T09:23:02;4.97;;;4.10;;
10719;SDS011;5411;58.386;15.560;2023-04-25T09:25:34;5.50;;;4.87;;
10719;SDS011;5411;58.386;15.560;2023-04-25T09:28:05;5.73;;;4.77;;
10719;SDS011;5411;58.386;15.560;2023-04-25T09:30:36;5.77;;;4.80;;
10719;SDS011;5411;58.386;15.560;2023-04-25T09:33:05;6.03;;;5.40;;
10719;SDS011;5411;58.386;15.560;2023-04-25T09:35:35;7.40;;;5.90;;
10719;SDS011;5411;58.386;15.560;2023-04-25T09:38:09;6.20;;;5.60;;
10719;SDS011;5411;58.386;15.560;2023-04-25T09:40:39;6.63;;;5.60;;
10719;SDS011;5411;58.386;15.560;2023-04-25T09:43:18;5.57;;;5.07;;
10719;SDS011;5411;58.386;15.560;2023-04-25T09:45:50;5.43;;;4.83;;
10719;SDS011;5411;58.386;15.560;2023-04-25T09:48:25;5.93;;;5.33;;
10719;SDS011;5411;58.386;15.560;2023-04-25T09:51:05;5.43;;;4.90;;
10719;SDS011;5411;58.386;15.560;2023-04-25T09:53:37;6.00;;;4.93;;
10719;SDS011;5411;58.386;15.560;2023-04-25T09:56:10;5.80;;;5.17;;
10719;SDS011;5411;58.386;15.560;2023-04-25T09:58:39;5.40;;;4.90;;
10719;SDS011;5411;58.386;15.560;2023-04-25T10:01:10;5.43;;;4.93;;
10719;SDS011;5411;58.386;15.560;2023-04-25T10:03:39;5.50;;;5.00;;
10719;SDS011;5411;58.386;15.560;2023-04-25T10:06:10;6.53;;;5.00;;
10719;SDS011;5411;58.386;15.560;2023-04-25T10:08:42;5.27;;;4.77;;
10719;SDS011;5411;58.386;15.560;2023-04-25T10:11:12;5.47;;;4.97;;
10719;SDS011;5411;58.386;15.560;2023-04-25T10:13:42;5.40;;;4.90;;
10719;SDS011;5411;58.386;15.560;2023-04-25T10:16:12;6.17;;;4.97;;
10719;SDS011;5411;58.386;15.560;2023-04-25T10:18:43;6.13;;;5.33;;
10719;SDS011;5411;58.386;15.560;2023-04-25T10:21:12;5.47;;;4.97;;
10719;SDS011;5411;58.386;15.560;2023-04-25T10:23:42;7.90;;;5.13;;
10719;SDS011;5411;58.386;15.560;2023-04-25T10:26:11;6.90;;;5.33;;
10719;SDS011;5411;58.386;15.560;2023-04-25T10:28:56;6.20;;;5.60;;
10719;SDS011;5411;58.386;15.560;2023-04-25T10:31:27;6.70;;;5.73;;
10719;SDS011;5411;58.386;15.560;2023-04-25T10:33:58;6.10;;;5.07;;
10719;SDS011;5411;58.386;15.560;2023-04-25T10:39:23;6.53;;;5.73;;
10719;SDS011;5411;58.386;15.560;2023-04-25T10:41:53;7.83;;;6.20;;
10719;SDS011;5411;58.386;15.560;2023-04-25T10:44:25;6.83;;;6.13;;
10719;SDS011;5411;58.386;15.560;2023-04-25T10:46:56;7.53;;;6.73;;
10719;SDS011;5411;58.386;15.560;2023-04-25T10:49:30;8.07;;;6.70;;
10719;SDS011;5411;58.386;15.560;2023-04-25T10:52:18;7.80;;;6.47;;
10719;SDS011;5411;58.386;15.560;2023-04-25T10:54:53;8.00;;;6.57;;
10719;SDS011;5411;58.386;15.560;2023-04-25T10:57:29;8.13;;;6.20;;
10719;SDS011;5411;58.386;15.560;2023-04-25T11:00:06;7.27;;;6.57;;
10719;SDS011;5411;58.386;15.560;2023-04-25T11:02:46;9.33;;;7.33;;
10719;SDS011;5411;58.386;15.560;2023-04-25T11:05:16;8.07;;;6.33;;
10719;SDS011;5411;58.386;15.560;2023-04-25T11:07:50;7.30;;;6.40;;
10719;SDS011;5411;58.386;15.560;2023-04-25T11:10:33;6.77;;;6.03;;
10719;SDS011;5411;58.386;15.560;2023-04-25T11:13:03;7.20;;;6.07;;
10719;SDS011;5411;58.386;15.560;2023-04-25T11:15:31;6.80;;;5.93;;
10719;SDS011;5411;58.386;15.560;2023-04-25T11:18:01;7.73;;;6.57;;
10719;SDS011;5411;58.386;15.560;2023-04-25T11:20:37;7.80;;;7.00;;
10719;SDS011;5411;58.386;15.560;2023-04-25T11:23:11;7.60;;;6.80;;
10719;SDS011;5411;58.386;15.560;2023-04-25T11:25:47;7.40;;;6.30;;
10719;SDS011;5411;58.386;15.560;2023-04-25T11:28:20;7.77;;;6.60;;
10719;SDS011;5411;58.386;15.560;2023-04-25T11:30:52;7.37;;;6.47;;
10719;SDS011;5411;58.386;15.560;2023-04-25T11:33:24;7.47;;;6.77;;
10719;SDS011;5411;58.386;15.560;2023-04-25T11:35:54;7.90;;;6.57;;
10719;SDS011;5411;58.386;15.560;2023-04-25T11:38:24;7.30;;;6.60;;
10719;SDS011;5411;58.386;15.560;2023-04-25T11:40:54;7.53;;;6.73;;
10719;SDS011;5411;58.386;15.560;2023-04-25T11:43:23;7.40;;;6.67;;
10719;SDS011;5411;58.386;15.560;2023-04-25T11:45:51;7.67;;;6.57;;
10719;SDS011;5411;58.386;15.560;2023-04-25T11:48:23;6.20;;;5.60;;
10719;SDS011;5411;58.386;15.560;2023-04-25T11:50:53;6.27;;;5.67;;
10719;SDS011;5411;58.386;15.560;2023-04-25T11:53:22;6.10;;;5.50;;
10719;SDS011;5411;58.386;15.560;2023-04-25T11:55:51;6.03;;;5.33;;
10719;SDS011;5411;58.386;15.560;2023-04-25T11:58:22;6.23;;;5.60;;
10719;SDS011;5411;58.386;15.560;2023-04-25T12:00:51;5.73;;;5.07;;
10719;SDS011;5411;58.386;15.560;2023-04-25T12:03:21;6.47;;;5.77;;
10719;SDS011;5411;58.386;15.560;2023-04-25T12:05:54;5.43;;;4.93;;
10719;SDS011;5411;58.386;15.560;2023-04-25T12:08:32;7.27;;;5.57;;
10719;SDS011;5411;58.386;15.560;2023-04-25T12:11:00;5.73;;;5.13;;
10719;SDS011;5411;58.386;15.560;2023-04-25T12:13:28;5.23;;;4.73;;
10719;SDS011;5411;58.386;15.560;2023-04-25T12:15:59;6.53;;;5.10;;
10719;SDS011;5411;58.386;15.560;2023-04-25T12:18:28;5.40;;;4.90;;
10719;SDS011;5411;58.386;15.560;2023-04-25T12:21:00;6.70;;;5.30;;
10719;SDS011;5411;58.386;15.560;2023-04-25T12:23:28;6.27;;;5.67;;
10719;SDS011;5411;58.386;15.560;2023-04-25T12:25:57;7.17;;;5.87;;
10719;SDS011;5411;58.386;15.560;2023-04-25T12:28:25;7.13;;;5.70;;
10719;SDS011;5411;58.386;15.560;2023-04-25T12:30:58;7.33;;;5.90;;
10719;SDS011;5411;58.386;15.560;2023-04-25T12:33:29;6.17;;;5.57;;
10719;SDS011;5411;58.386;15.560;2023-04-25T12:36:00;6.47;;;5.07;;
10719;SDS011;5411;58.386;15.560;2023-04-25T12:38:35;6.20;;;5.50;;
10719;SDS011;5411;58.386;15.560;2023-04-25T12:41:04;6.63;;;6.03;;
10719;SDS011;5411;58.386;15.560;2023-04-25T12:43:33;6.37;;;5.40;;
10719;SDS011;5411;58.386;15.560;2023-04-25T12:46:05;5.50;;;5.00;;
10719;SDS011;5411;58.386;15.560;2023-04-25T12:48:36;6.13;;;5.23;;
10719;SDS011;5411;58.386;15.560;2023-04-25T12:51:06;6.00;;;5.30;;
10719;SDS011;5411;58.386;15.560;2023-04-25T12:53:34;6.07;;;5.47;;
10719;SDS011;5411;58.386;15.560;2023-04-25T12:56:04;5.90;;;5.30;;
10719;SDS011;5411;58.386;15.560;2023-04-25T12:58:33;5.53;;;5.03;;
10719;SDS011;5411;58.386;15.560;2023-04-25T13:01:03;5.37;;;4.87;;
10719;SDS011;5411;58.386;15.560;2023-04-25T13:03:32;6.20;;;5.57;;
10719;SDS011;5411;58.386;15.560;2023-04-25T13:08:51;5.93;;;5.30;;
10719;SDS011;5411;58.386;15.560;2023-04-25T13:11:19;6.63;;;5.70;;
10719;SDS011;5411;58.386;15.560;2023-04-25T13:13:48;6.03;;;5.07;;
10719;SDS011;5411;58.386;15.560;2023-04-25T13:16:16;5.37;;;4.87;;
10719;SDS011;5411;58.386;15.560;2023-04-25T13:18:47;5.00;;;4.60;;
10719;SDS011;5411;58.386;15.560;2023-04-25T13:21:15;5.60;;;5.10;;
10719;SDS011;5411;58.386;15.560;2023-04-25T13:23:47;5.23;;;4.73;;
10719;SDS011;5411;58.386;15.560;2023-04-25T13:26:15;5.80;;;5.30;;
10719;SDS011;5411;58.386;15.560;2023-04-25T13:28:47;6.23;;;5.20;;
10719;SDS011;5411;58.386;15.560;2023-04-25T13:31:15;5.57;;;5.00;;
10719;SDS011;5411;58.386;15.560;2023-04-25T13:33:44;5.77;;;5.07;;
10719;SDS011;5411;58.386;15.560;2023-04-25T13:36:13;6.07;;;5.23;;
10719;SDS011;5411;58.386;15.560;2023-04-25T13:38:42;5.80;;;5.20;;
10719;SDS011;5411;58.386;15.560;2023-04-25T13:41:21;5.63;;;5.13;;
10719;SDS011;5411;58.386;15.560;2023-04-25T13:43:50;6.00;;;5.40;;
10719;SDS011;5411;58.386;15.560;2023-04-25T13:46:19;6.83;;;5.93;;
10719;SDS011;5411;58.386;15.560;2023-04-25T13:49:07;5.60;;;5.00;;
10719;SDS011;5411;58.386;15.560;2023-04-25T13:51:39;5.57;;;5.07;;
10719;SDS011;5411;58.386;15.560;2023-04-25T13:54:09;6.17;;;5.43;;
10719;SDS011;5411;58.386;15.560;2023-04-25T13:56:39;6.73;;;5.67;;
10719;SDS011;5411;58.386;15.560;2023-04-25T13:59:08;6.30;;;5.40;;
10719;SDS011;5411;58.386;15.560;2023-04-25T14:01:40;6.30;;;5.70;;
10719;SDS011;5411;58.386;15.560;2023-04-25T14:04:09;5.90;;;5.30;;
10719;SDS011;5411;58.386;15.560;2023-04-25T14:06:39;5.87;;;5.27;;
10719;SDS011;5411;58.386;15.560;2023-04-25T14:09:08;5.53;;;5.03;;
10719;SDS011;5411;58.386;15.560;2023-04-25T14:11:53;6.57;;;5.97;;
10719;SDS011;5411;58.386;15.560;2023-04-25T14:14:22;6.87;;;6.27;;
10719;SDS011;5411;58.386;15.560;2023-04-25T14:16:51;6.17;;;5.57;;
10719;SDS011;5411;58.386;15.560;2023-04-25T14:19:20;6.47;;;5.77;;
10719;SDS011;5411;58.386;15.560;2023-04-25T14:21:49;6.47;;;5.87;;
10719;SDS011;5411;58.386;15.560;2023-04-25T14:24:18;6.83;;;5.77;;
10719;SDS011;5411;58.386;15.560;2023-04-25T14:26:48;6.60;;;5.20;;
10719;SDS011;5411;58.386;15.560;2023-04-25T14:29:17;6.07;;;5.47;;
10719;SDS011;5411;58.386;15.560;2023-04-25T14:31:45;7.13;;;5.37;;
10719;SDS011;5411;58.386;15.560;2023-04-25T14:34:15;5.77;;;5.27;;
10719;SDS011;5411;58.386;15.560;2023-04-25T14:36:45;5.80;;;5.30;;
10719;SDS011;5411;58.386;15.560;2023-04-25T14:39:13;5.50;;;4.87;;
10719;SDS011;5411;58.386;15.560;2023-04-25T14:41:43;5.57;;;5.07;;
10719;SDS011;5411;58.386;15.560;2023-04-25T14:44:12;5.87;;;5.27;;
10719;SDS011;5411;58.386;15.560;2023-04-25T14:46:41;5.70;;;5.10;;
10719;SDS011;5411;58.386;15.560;2023-04-25T14:49:12;5.40;;;4.90;;
10719;SDS011;5411;58.386;15.560;2023-04-25T14:51:41;5.30;;;4.80;;
10719;SDS011;5411;58.386;15.560;2023-04-25T14:54:10;5.63;;;4.83;;
10719;SDS011;5411;58.386;15.560;2023-04-25T14:56:39;5.57;;;5.00;;
10719;SDS011;5411;58.386;15.560;2023-04-25T14:59:07;5.83;;;5.27;;
10719;SDS011;5411;58.386;15.560;2023-04-25T15:01:37;5.60;;;5.10;;
10719;SDS011;5411;58.386;15.560;2023-04-25T15:04:08;6.00;;;5.40;;
10719;SDS011;5411;58.386;15.560;2023-04-25T15:06:38;5.83;;;5.33;;
10719;SDS011;5411;58.386;15.560;2023-04-25T15:09:06;5.80;;;5.20;;
10719;SDS011;5411;58.386;15.560;2023-04-25T15:11:37;5.17;;;4.63;;